Time;durP1;ratioP1;P1;durP2;ratioP2;P2;SDS_P1;SDS_P2;PMS_P1;PMS_P2;Temp;Humidity;BMP_temperature;BMP_pressure;BME280_temperature;BME280_humidity;BME280_pressure;Samples;Min_cycle;Max_cycle;Signal;HPM_P1;HPM_P2
2022/09/26 00:02:58;;;;;;;1.48;1.30;;;;;;;10.04;100.00;100606.09;6246983;28;20057;-72
2022/09/26 00:06:00;;;;;;;4.32;1.42;;;;;;;10.06;100.00;100609.47;6246465;28;20049;-71
2022/09/26 00:09:03;;;;;;;5.85;1.13;;;;;;;10.06;100.00;100592.88;6246868;28;20049;-72
2022/09/26 00:12:06;;;;;;;2.28;1.65;;;;;;;10.02;100.00;100576.44;6246394;28;20052;-72
2022/09/26 00:15:09;;;;;;;1.77;1.42;;;;;;;9.99;100.00;100573.13;6246322;28;20041;-72
2022/09/26 00:18:10;;;;;;;1.90;1.17;;;;;;;9.99;100.00;100567.88;6246719;28;20060;-72
2022/09/26 00:21:13;;;;;;;2.22;1.40;;;;;;;9.99;100.00;100553.00;6246461;28;20056;-72
2022/09/26 00:24:18;;;;;;;3.05;1.33;;;;;;;9.98;100.00;100564.41;6246275;28;20057;-72
2022/09/26 00:27:19;;;;;;;1.85;1.20;;;;;;;9.97;100.00;100554.84;6246404;28;20053;-72
2022/09/26 00:30:21;;;;;;;1.85;1.23;;;;;;;9.98;100.00;100545.19;6246296;28;20053;-72
2022/09/26 00:33:22;;;;;;;3.97;1.42;;;;;;;9.96;100.00;100545.28;6250604;28;20053;-72
2022/09/26 00:36:24;;;;;;;2.65;1.10;;;;;;;9.97;100.00;100535.63;6251213;28;20519;-72
2022/09/26 00:39:27;;;;;;;2.88;1.38;;;;;;;9.95;100.00;100526.97;6251544;28;20046;-71
2022/09/26 00:42:28;;;;;;;2.58;1.50;;;;;;;9.93;100.00;100526.22;6250980;28;20413;-72
2022/09/26 00:45:31;;;;;;;3.22;1.48;;;;;;;9.91;100.00;100523.69;6250954;28;20053;-72
2022/09/26 00:48:34;;;;;;;2.30;1.23;;;;;;;9.88;100.00;100519.44;6251457;28;20049;-71
2022/09/26 00:51:39;;;;;;;2.80;1.42;;;;;;;9.83;100.00;100515.38;6250998;28;20053;-72
2022/09/26 00:54:46;;;;;;;2.80;0.90;;;;;;;9.77;100.00;100516.56;6250995;28;20049;-72
2022/09/26 00:57:53;;;;;;;4.00;1.98;;;;;;;9.74;100.00;100511.44;6251046;28;20045;-72
2022/09/26 01:00:55;;;;;;;1.50;1.10;;;;;;;9.72;100.00;100499.34;6250785;28;20045;-72
2022/09/26 01:03:57;;;;;;;9.52;1.30;;;;;;;9.73;100.00;100501.06;6250615;28;20057;-72
2022/09/26 01:07:01;;;;;;;2.78;1.08;;;;;;;9.70;100.00;100495.97;6250723;28;20418;-71
2022/09/26 01:10:06;;;;;;;2.95;1.08;;;;;;;9.71;100.00;100493.25;6250498;28;20050;-72
2022/09/26 01:13:07;;;;;;;2.70;1.58;;;;;;;9.70;100.00;100488.94;6250927;28;20045;-72
2022/09/26 01:16:09;;;;;;;1.98;0.82;;;;;;;9.70;100.00;100488.09;6250180;28;20056;-72
2022/09/26 01:19:25;;;;;;;1.98;1.05;;;;;;;9.69;100.00;100481.16;6250688;28;20057;-72
2022/09/26 01:22:52;;;;;;;2.85;1.20;;;;;;;9.68;100.00;100477.69;6250230;28;20049;-72
2022/09/26 01:26:14;;;;;;;0.93;0.85;;;;;;;9.69;100.00;100470.66;6250461;28;20052;-72
2022/09/26 01:29:42;;;;;;;1.65;1.27;;;;;;;9.69;100.00;100460.16;6250568;28;20064;-72
2022/09/26 01:33:03;;;;;;;2.45;1.10;;;;;;;9.68;100.00;100471.59;6250559;28;20049;-72
2022/09/26 01:36:18;;;;;;;1.75;1.00;;;;;;;9.68;100.00;100459.31;6249735;28;20096;-72
2022/09/26 01:39:34;;;;;;;1.83;1.00;;;;;;;9.71;100.00;100459.13;6250204;28;20056;-72
2022/09/26 01:42:42;;;;;;;2.05;1.10;;;;;;;9.69;100.00;100454.91;6249715;28;20045;-72
2022/09/26 01:45:50;;;;;;;4.88;1.30;;;;;;;9.68;100.00;100456.69;6249389;28;20056;-72
2022/09/26 01:48:57;;;;;;;1.35;0.98;;;;;;;9.66;100.00;100462.00;6250429;28;20505;-71
2022/09/26 01:52:06;;;;;;;1.10;1.00;;;;;;;9.73;100.00;100443.31;6249699;28;20423;-72
2022/09/26 01:55:11;;;;;;;3.85;1.50;;;;;;;9.72;100.00;100442.47;6249171;28;20417;-72
2022/09/26 01:58:17;;;;;;;2.10;1.10;;;;;;;9.73;100.00;100444.16;6249806;28;20053;-71
2022/09/26 02:01:23;;;;;;;2.50;1.42;;;;;;;9.74;100.00;100431.88;6249477;28;20076;-72
2022/09/26 02:04:32;;;;;;;2.20;1.30;;;;;;;9.76;100.00;100432.63;6249447;28;20053;-72
2022/09/26 02:07:38;;;;;;;1.80;1.10;;;;;;;9.77;100.00;100424.69;6249568;28;20429;-72
2022/09/26 02:10:46;;;;;;;1.45;1.20;;;;;;;9.75;100.00;100421.28;6249275;28;20052;-72
2022/09/26 02:13:51;;;;;;;3.10;1.10;;;;;;;9.77;100.00;100414.19;6249192;28;20049;-72
2022/09/26 02:16:59;;;;;;;2.50;1.48;;;;;;;9.75;100.00;100413.41;6248020;28;20057;-71
2022/09/26 02:20:09;;;;;;;3.00;1.40;;;;;;;9.77;100.00;100411.56;6245908;28;20045;-72
2022/09/26 02:23:10;;;;;;;3.45;1.40;;;;;;;9.77;100.00;100398.47;6247640;28;20497;-72
2022/09/26 02:26:12;;;;;;;2.22;1.40;;;;;;;9.78;100.00;100399.31;6247364;28;20720;-71
2022/09/26 02:29:14;;;;;;;2.55;1.73;;;;;;;9.80;100.00;100387.78;6247487;28;20041;-72
2022/09/26 02:32:19;;;;;;;2.53;1.55;;;;;;;9.82;100.00;100387.72;6244633;28;20060;-71
2022/09/26 02:38:42;;;;;;;3.85;1.35;;;;;;;9.78;100.00;100375.69;6248982;28;20061;-71
2022/09/26 02:41:49;;;;;;;5.38;1.00;;;;;;;9.79;100.00;100364.25;6245040;28;20053;-71
2022/09/26 02:45:07;;;;;;;9.98;2.28;;;;;;;9.79;100.00;100359.84;6247747;28;20497;-72
2022/09/26 02:48:32;;;;;;;1.85;1.35;;;;;;;9.80;100.00;100358.06;6244179;28;20045;-71
2022/09/26 02:51:56;;;;;;;6.70;1.52;;;;;;;9.79;100.00;100343.25;6237265;28;20046;-72
2022/09/26 02:55:10;;;;;;;3.45;1.40;;;;;;;9.78;100.00;100350.28;6244976;28;20057;-72
2022/09/26 02:58:21;;;;;;;2.22;1.27;;;;;;;9.78;100.00;100349.44;6246566;28;20041;-72
2022/09/26 03:01:31;;;;;;;1.55;1.20;;;;;;;9.77;100.00;100348.59;6246540;28;20076;-72
2022/09/26 03:04:41;;;;;;;2.33;1.45;;;;;;;9.77;100.00;100337.25;6244347;28;20049;-72
2022/09/26 03:07:47;;;;;;;3.53;1.30;;;;;;;9.78;100.00;100338.94;6246550;28;20049;-72
2022/09/26 03:10:51;;;;;;;1.67;1.20;;;;;;;9.78;100.00;100328.44;6243831;28;20052;-71
2022/09/26 03:13:54;;;;;;;2.25;1.50;;;;;;;9.78;100.00;100328.44;6246168;28;20050;-72
2022/09/26 03:16:56;;;;;;;5.07;1.20;;;;;;;9.76;100.00;100320.63;6246377;28;20045;-72
2022/09/26 03:20:03;;;;;;;2.75;1.52;;;;;;;9.72;100.00;100313.03;6246232;28;20072;-72
2022/09/26 03:23:06;;;;;;;1.85;1.00;;;;;;;9.71;100.00;100306.94;6246159;28;20049;-72
2022/09/26 03:26:10;;;;;;;5.20;1.30;;;;;;;9.68;100.00;100304.50;6247046;28;20547;-72
2022/09/26 03:29:11;;;;;;;1.55;1.13;;;;;;;9.69;100.00;100300.94;6247885;28;20068;-71
2022/09/26 03:32:12;;;;;;;1.60;1.35;;;;;;;9.69;100.00;100300.94;6247435;28;20420;-72
2022/09/26 03:35:14;;;;;;;1.98;1.10;;;;;;;9.66;100.00;100290.63;6246972;28;20045;-72
2022/09/26 03:38:17;;;;;;;3.78;1.70;;;;;;;9.69;100.00;100287.84;6247658;28;20052;-72
2022/09/26 03:41:18;;;;;;;1.52;1.25;;;;;;;9.70;100.00;100288.66;6247216;28;20046;-72
2022/09/26 03:44:20;;;;;;;2.25;1.40;;;;;;;9.69;100.00;100284.38;6247269;28;20053;-72
2022/09/26 03:47:21;;;;;;;3.75;1.60;;;;;;;9.69;100.00;100279.97;6247438;28;20049;-72
2022/09/26 03:50:23;;;;;;;4.45;1.00;;;;;;;9.68;100.00;100267.78;6246860;28;20057;-72
2022/09/26 03:53:26;;;;;;;1.33;1.00;;;;;;;9.63;100.00;100268.03;6247260;28;20052;-72
2022/09/26 03:56:27;;;;;;;2.17;1.15;;;;;;;9.62;100.00;100266.31;6246625;28;20052;-72
2022/09/26 03:59:28;;;;;;;2.08;1.38;;;;;;;9.64;100.00;100258.41;6247287;28;20049;-72
2022/09/26 04:02:30;;;;;;;1.77;1.30;;;;;;;9.63;100.00;100252.31;6246730;28;20417;-72
2022/09/26 04:05:31;;;;;;;1.88;1.52;;;;;;;9.59;100.00;100253.41;6246688;28;20103;-72
2022/09/26 04:08:35;;;;;;;1.70;1.38;;;;;;;9.59;100.00;100248.16;6246489;28;20412;-72
2022/09/26 04:11:37;;;;;;;2.85;1.23;;;;;;;9.59;100.00;100250.78;6246695;28;20516;-71
2022/09/26 04:14:38;;;;;;;3.08;1.67;;;;;;;9.58;100.00;100243.84;6246472;28;20056;-71
2022/09/26 04:17:40;;;;;;;5.50;1.67;;;;;;;9.55;100.00;100235.31;6246838;28;20497;-72
2022/09/26 04:20:41;;;;;;;2.67;1.80;;;;;;;9.57;100.00;100225.56;6246557;28;20049;-72
2022/09/26 04:23:44;;;;;;;2.65;1.58;;;;;;;9.53;100.00;100222.25;6246300;28;20142;-72
2022/09/26 04:26:46;;;;;;;4.38;2.40;;;;;;;9.56;100.00;100216.00;6246730;28;20053;-72
2022/09/26 04:29:47;;;;;;;3.03;1.80;;;;;;;9.57;100.00;100209.81;6246260;28;20060;-72
2022/09/26 04:32:48;;;;;;;7.25;2.10;;;;;;;9.61;100.00;100206.09;6246589;28;20452;-71
2022/09/26 04:35:50;;;;;;;3.67;2.17;;;;;;;9.59;100.00;100200.09;6246061;28;20064;-72
2022/09/26 04:38:52;;;;;;;4.03;1.90;;;;;;;9.62;100.00;100199.91;6246695;28;20701;-72
2022/09/26 04:41:54;;;;;;;3.05;1.77;;;;;;;9.61;100.00;100193.81;6246403;28;20056;-72
2022/09/26 04:44:55;;;;;;;9.55;2.38;;;;;;;9.66;100.00;100189.13;6246292;28;20050;-72
2022/09/26 04:47:56;;;;;;;4.43;2.45;;;;;;;9.69;100.00;100185.50;6246442;28;20057;-72
2022/09/26 04:50:58;;;;;;;3.30;2.20;;;;;;;9.71;100.00;100181.00;6245954;28;20053;-71
2022/09/26 04:54:00;;;;;;;3.10;2.22;;;;;;;9.73;100.00;100176.53;6246173;28;20049;-72
2022/09/26 04:57:03;;;;;;;3.25;2.03;;;;;;;9.74;100.00;100166.88;6246128;28;20057;-72
2022/09/26 05:00:06;;;;;;;5.60;2.78;;;;;;;9.74;100.00;100175.59;6246109;28;20053;-72
2022/09/26 05:03:08;;;;;;;5.60;2.85;;;;;;;9.76;100.00;100172.84;6246223;28;20046;-72
2022/09/26 05:06:10;;;;;;;6.50;3.20;;;;;;;9.76;100.00;100165.81;6246170;28;20045;-72
2022/09/26 05:09:14;;;;;;;4.15;2.55;;;;;;;9.81;100.00;100162.94;6246143;28;20057;-71
2022/09/26 05:12:17;;;;;;;4.50;2.80;;;;;;;9.82;100.00;100157.59;6245970;28;20057;-72
2022/09/26 05:15:18;;;;;;;4.72;2.63;;;;;;;9.85;100.00;100148.69;6245693;28;20523;-72
2022/09/26 05:18:20;;;;;;;6.25;2.50;;;;;;;9.85;100.00;100140.81;6246945;28;20049;-72
2022/09/26 05:21:22;;;;;;;11.75;3.35;;;;;;;9.89;100.00;100140.53;6250330;28;20052;-73
2022/09/26 05:27:44;;;;;;;5.90;3.17;;;;;;;9.83;100.00;100127.81;6250593;28;20049;-72
2022/09/26 05:30:45;;;;;;;7.35;3.60;;;;;;;9.85;100.00;100132.94;6250260;28;20051;-72
2022/09/26 05:33:47;;;;;;;8.15;3.65;;;;;;;9.90;100.00;100126.50;6250165;28;20045;-72
2022/09/26 05:36:48;;;;;;;6.10;3.10;;;;;;;9.90;100.00;100130.88;6250088;28;20045;-72
2022/09/26 05:43:10;;;;;;;5.68;3.20;;;;;;;9.95;100.00;100120.97;6250453;28;20092;-72
2022/09/26 05:46:11;;;;;;;8.77;3.58;;;;;;;9.99;100.00;100119.84;6249668;28;20049;-72
2022/09/26 05:49:13;;;;;;;5.18;3.38;;;;;;;9.98;100.00;100112.91;6250198;28;20175;-71
2022/09/26 05:52:14;;;;;;;4.90;3.08;;;;;;;9.98;100.00;100114.69;6249772;28;20057;-71
2022/09/26 05:55:17;;;;;;;7.85;3.83;;;;;;;10.02;100.00;100113.56;6249339;28;20087;-72
2022/09/26 05:58:19;;;;;;;7.43;3.90;;;;;;;10.03;100.00;100110.00;6250172;28;20056;-71
2022/09/26 06:01:21;;;;;;;4.97;2.92;;;;;;;10.04;100.00;100109.91;6249555;28;20064;-72
2022/09/26 06:04:22;;;;;;;5.47;3.20;;;;;;;10.07;100.00;100108.88;6249580;28;20057;-72
2022/09/26 06:07:23;;;;;;;9.88;3.63;;;;;;;10.08;100.00;100102.66;6249646;28;20053;-71
2022/09/26 06:10:26;;;;;;;4.38;3.25;;;;;;;10.09;100.00;100107.00;6249618;28;20056;-71
2022/09/26 06:13:28;;;;;;;6.47;3.50;;;;;;;10.08;100.00;100108.78;6249770;28;20508;-72
2022/09/26 06:16:29;;;;;;;5.72;3.55;;;;;;;10.11;100.00;100105.13;6249247;28;20088;-72
2022/09/26 06:19:31;;;;;;;7.40;3.83;;;;;;;10.16;100.00;100095.16;6249366;28;20053;-72
2022/09/26 06:22:38;;;;;;;6.13;3.60;;;;;;;10.19;100.00;100094.16;6248975;28;20049;-72
2022/09/26 06:25:42;;;;;;;7.75;3.47;;;;;;;10.21;100.00;100085.22;6248980;28;20054;-72
2022/09/26 06:28:43;;;;;;;6.28;3.72;;;;;;;10.25;100.00;100085.91;6249027;28;20056;-72
2022/09/26 06:31:45;;;;;;;9.18;2.92;;;;;;;10.28;100.00;100081.31;6248598;28;20382;-72
2022/09/26 06:34:46;;;;;;;6.20;3.42;;;;;;;10.32;100.00;100071.47;6248569;28;20180;-72
2022/09/26 06:37:48;;;;;;;6.00;3.15;;;;;;;10.33;100.00;100066.09;6248383;28;20042;-72
2022/09/26 06:40:53;;;;;;;8.32;4.18;;;;;;;10.36;100.00;100068.56;6238801;28;20049;-72
2022/09/26 06:43:54;;;;;;;6.22;2.90;;;;;;;10.38;100.00;100066.66;6247417;28;20570;-72
2022/09/26 06:46:56;;;;;;;3.97;2.63;;;;;;;10.43;100.00;100055.03;6248669;28;20049;-71
2022/09/26 06:49:57;;;;;;;7.18;3.15;;;;;;;10.46;100.00;100055.66;6248382;28;20060;-72
2022/09/26 06:53:02;;;;;;;6.50;2.45;;;;;;;10.53;100.00;100049.06;6246626;28;20049;-72
2022/09/26 06:56:05;;;;;;;7.30;3.00;;;;;;;10.56;100.00;100053.28;6247751;28;20056;-72
2022/09/26 06:59:07;;;;;;;4.63;2.88;;;;;;;10.61;100.00;100040.69;6239965;28;20488;-72
2022/09/26 07:02:09;;;;;;;3.33;2.35;;;;;;;10.66;100.00;100043.88;6246599;28;20045;-71
2022/09/26 07:05:10;;;;;;;5.05;2.50;;;;;;;10.75;100.00;100042.44;6248067;28;20053;-72
2022/09/26 07:08:11;;;;;;;7.68;2.67;;;;;;;10.77;100.00;100030.88;6248276;28;20056;-71
2022/09/26 07:11:14;;;;;;;5.55;2.63;;;;;;;10.85;100.00;100031.19;6247825;28;20064;-71
2022/09/26 07:14:16;;;;;;;4.65;2.55;;;;;;;10.88;100.00;100023.13;6238659;28;20049;-71
2022/09/26 07:17:18;;;;;;;5.30;2.03;;;;;;;10.92;100.00;100023.78;6243464;28;20073;-72
2022/09/26 07:20:20;;;;;;;7.00;2.58;;;;;;;10.98;100.00;100025.97;6223245;28;20050;-72
2022/09/26 07:23:22;;;;;;;3.22;2.38;;;;;;;11.01;100.00;100023.16;6237805;28;20053;-72
2022/09/26 07:26:25;;;;;;;6.20;2.10;;;;;;;11.05;100.00;100016.75;6247137;28;20057;-72
2022/09/26 07:29:26;;;;;;;4.10;2.42;;;;;;;11.10;100.00;100016.44;6247669;28;20050;-72
2022/09/26 07:32:29;;;;;;;6.57;2.63;;;;;;;11.14;100.00;100017.91;6227841;28;20457;-72
2022/09/26 07:35:32;;;;;;;6.65;2.63;;;;;;;11.17;100.00;100017.69;6222721;28;20061;-72
2022/09/26 07:38:34;;;;;;;2.90;2.03;;;;;;;11.21;100.00;100018.34;6222971;28;20104;-69
2022/09/26 07:41:36;;;;;;;5.88;2.58;;;;;;;11.25;100.00;100009.28;6221747;28;20057;-72
2022/09/26 07:44:39;;;;;;;5.47;2.47;;;;;;;11.29;100.00;100003.72;6229820;28;20056;-72
2022/09/26 07:51:00;;;;;;;5.63;2.90;;;;;;;11.32;100.00;100000.91;6246774;28;20053;-72
2022/09/26 07:54:01;;;;;;;4.45;2.35;;;;;;;11.40;100.00;99995.13;6247081;28;20061;-72
2022/09/26 07:57:04;;;;;;;7.88;3.63;;;;;;;11.43;100.00;99997.50;6247073;28;20049;-73
2022/09/26 08:00:08;;;;;;;3.42;2.35;;;;;;;11.46;100.00;99992.06;6246689;28;20478;-72
2022/09/26 08:03:12;;;;;;;8.57;2.70;;;;;;;11.48;100.00;99992.78;6247157;28;20069;-74
2022/09/26 08:06:16;;;;;;;4.57;2.92;;;;;;;11.54;100.00;99997.63;6246471;28;20046;-71
2022/09/26 08:09:18;;;;;;;4.15;2.80;;;;;;;11.57;100.00;100001.81;6237439;28;20417;-71
2022/09/26 08:12:20;;;;;;;4.45;2.67;;;;;;;11.58;100.00;99987.72;6232406;28;20049;-72
2022/09/26 08:15:22;;;;;;;4.68;2.80;;;;;;;11.57;100.00;99984.25;6246292;28;20060;-73
2022/09/26 08:18:23;;;;;;;4.53;2.25;;;;;;;11.65;100.00;99978.44;6222304;28;20410;-72
2022/09/26 08:21:25;;;;;;;4.13;2.70;;;;;;;11.70;100.00;99986.84;6222743;28;20061;-70
2022/09/26 08:24:26;;;;;;;2.53;2.03;;;;;;;11.76;100.00;99972.41;6246248;28;20050;-71
2022/09/26 08:27:33;;;;;;;6.60;3.67;;;;;;;11.83;100.00;99979.81;6246466;28;20048;-70
2022/09/26 08:30:35;;;;;;;9.40;3.40;;;;;;;11.85;100.00;99975.28;6246321;28;20049;-71
2022/09/26 08:33:37;;;;;;;7.65;3.35;;;;;;;11.97;100.00;99970.09;6246485;28;20651;-71
2022/09/26 08:36:38;;;;;;;6.07;2.72;;;;;;;12.00;100.00;99976.00;6245026;28;20045;-72
2022/09/26 08:39:40;;;;;;;5.93;2.25;;;;;;;12.03;100.00;99978.38;6246052;28;20508;-72
2022/09/26 08:42:55;;;;;;;5.63;2.55;;;;;;;12.09;100.00;99974.50;6231871;28;20053;-71
2022/09/26 08:49:38;;;;;;;4.05;2.15;;;;;;;12.15;100.00;99966.13;6221983;28;20136;-72
2022/09/26 08:52:43;;;;;;;4.35;2.50;;;;;;;12.16;100.00;99952.84;6223189;28;20061;-71
2022/09/26 08:55:48;;;;;;;5.88;2.65;;;;;;;12.18;100.00;99950.97;6226404;28;20053;-71
2022/09/26 08:58:54;;;;;;;8.73;2.63;;;;;;;12.20;100.00;99953.47;6226392;28;20050;-71
2022/09/26 09:02:01;;;;;;;7.65;2.97;;;;;;;12.24;100.00;99943.56;6226426;28;20053;-71
2022/09/26 09:05:08;;;;;;;6.57;2.53;;;;;;;12.38;100.00;99940.75;6225989;28;20429;-72
2022/09/26 09:08:14;;;;;;;3.92;2.08;;;;;;;12.44;100.00;99937.66;6226905;28;20441;-72
2022/09/26 09:11:24;;;;;;;3.97;2.17;;;;;;;12.53;99.68;99944.88;6225994;28;20060;-71
2022/09/26 09:14:48;;;;;;;3.95;1.73;;;;;;;12.57;100.00;99938.41;6226141;28;20406;-73
2022/09/26 09:18:02;;;;;;;4.72;2.15;;;;;;;12.55;100.00;99921.91;6248811;28;20046;-73
2022/09/26 09:21:21;;;;;;;6.05;2.20;;;;;;;12.58;100.00;99920.81;6249596;28;20041;-73
2022/09/26 09:24:35;;;;;;;3.40;2.05;;;;;;;12.62;99.70;99922.25;6250373;28;20052;-72
2022/09/26 09:27:48;;;;;;;2.83;1.75;;;;;;;12.67;97.87;99922.75;6250221;28;20049;-72
2022/09/26 09:30:57;;;;;;;3.55;2.03;;;;;;;12.66;95.57;99921.09;6250274;28;20050;-71
2022/09/26 09:34:02;;;;;;;14.55;2.95;;;;;;;12.62;97.55;99915.19;6249847;28;20049;-72
2022/09/26 09:37:09;;;;;;;8.77;2.10;;;;;;;12.59;100.00;99917.25;6250264;28;20060;-72
2022/09/26 09:40:19;;;;;;;4.53;2.70;;;;;;;12.56;100.00;99923.56;6249670;28;20049;-72
2022/09/26 09:43:26;;;;;;;5.13;2.17;;;;;;;12.54;98.90;99919.38;6250533;28;20448;-73
2022/09/26 09:46:34;;;;;;;4.25;2.45;;;;;;;12.47;100.00;99924.25;6249405;28;20049;-72
2022/09/26 09:49:35;;;;;;;4.30;2.38;;;;;;;12.38;100.00;99922.31;6250022;28;20049;-72
2022/09/26 09:52:49;;;;;;;2.85;1.73;;;;;;;12.35;100.00;99926.03;6249558;28;20056;-72
2022/09/26 09:56:02;;;;;;;1.92;1.63;;;;;;;12.33;100.00;99921.81;6249565;28;20049;-72
2022/09/26 09:59:20;;;;;;;3.60;2.10;;;;;;;12.30;100.00;99908.84;6249587;28;20053;-72
2022/09/26 10:02:34;;;;;;;3.40;1.92;;;;;;;12.33;100.00;99900.72;6249566;28;20045;-72
2022/09/26 10:05:40;;;;;;;5.15;2.47;;;;;;;12.36;100.00;99890.81;6248957;28;20528;-72
2022/09/26 10:08:41;;;;;;;5.55;1.75;;;;;;;12.42;100.00;99892.13;6249719;28;20489;-72
2022/09/26 10:11:43;;;;;;;2.55;1.75;;;;;;;12.45;100.00;99886.66;6249023;28;20143;-72
2022/09/26 10:14:54;;;;;;;2.67;1.90;;;;;;;12.48;100.00;99893.47;6249105;28;20072;-71
2022/09/26 10:18:05;;;;;;;3.85;1.67;;;;;;;12.50;100.00;99881.03;6249290;28;20046;-72
2022/09/26 10:21:11;;;;;;;1.73;1.42;;;;;;;12.48;100.00;99872.38;6249234;28;20048;-72
2022/09/26 10:24:23;;;;;;;2.72;1.63;;;;;;;12.47;100.00;99874.19;6248717;28;20184;-72
2022/09/26 10:27:34;;;;;;;1.88;1.33;;;;;;;12.53;100.00;99867.59;6249314;28;20050;-72
2022/09/26 10:30:47;;;;;;;5.28;1.65;;;;;;;12.53;100.00;99864.97;6248889;28;20060;-71
2022/09/26 10:33:58;;;;;;;1.83;1.45;;;;;;;12.52;100.00;99863.28;6248771;28;20053;-72
2022/09/26 10:37:21;;;;;;;2.28;1.38;;;;;;;12.54;100.00;99861.41;6248829;28;20501;-72
2022/09/26 10:40:46;;;;;;;2.20;1.58;;;;;;;12.59;100.00;99859.25;6248717;28;20050;-72
2022/09/26 10:43:53;;;;;;;2.20;1.40;;;;;;;12.58;100.00;99847.88;6248604;28;20050;-71
2022/09/26 10:46:58;;;;;;;1.08;0.98;;;;;;;12.62;100.00;99845.81;6248714;28;20045;-72
2022/09/26 10:50:06;;;;;;;1.25;1.13;;;;;;;12.64;100.00;99847.41;6248436;28;20050;-71
2022/09/26 10:53:11;;;;;;;3.58;1.25;;;;;;;12.62;100.00;99848.47;6248312;28;20413;-71
2022/09/26 10:56:20;;;;;;;1.27;1.08;;;;;;;12.61;100.00;99837.09;6247994;28;20057;-71
2022/09/26 10:59:25;;;;;;;3.13;1.75;;;;;;;12.54;100.00;99838.53;6255965;28;20045;-71
2022/09/26 11:02:28;;;;;;;2.67;1.73;;;;;;;12.48;100.00;99835.50;6272882;28;20518;-72
2022/09/26 11:09:01;;;;;;;7.80;1.42;;;;;;;12.39;100.00;99826.50;6273238;28;20052;-72
2022/09/26 11:12:24;;;;;;;3.60;1.45;;;;;;;12.33;100.00;99826.97;6272332;28;20056;-71
2022/09/26 11:15:27;;;;;;;1.92;1.48;;;;;;;12.32;100.00;99833.19;6268737;28;20136;-71
2022/09/26 11:18:38;;;;;;;2.75;1.45;;;;;;;12.31;100.00;99821.81;6247730;28;20048;-71
2022/09/26 11:21:45;;;;;;;1.48;1.35;;;;;;;12.29;100.00;99814.97;6247489;28;20053;-71
2022/09/26 11:24:54;;;;;;;1.85;1.38;;;;;;;12.32;100.00;99809.47;6247514;28;20079;-72
2022/09/26 11:28:01;;;;;;;;;;;;;;;12.27;100.00;99809.00;6248054;28;20053;-71
2022/09/26 11:31:08;;;;;;;2.47;1.45;;;;;;;12.26;100.00;99802.03;6247621;28;19929;-72
2022/09/26 11:34:15;;;;;;;3.92;1.90;;;;;;;12.24;100.00;99810.03;6247235;28;20058;-71
2022/09/26 11:38:02;;;;;;;4.53;1.35;;;;;;;12.17;100.00;99800.91;6247485;28;20049;-71
2022/09/26 11:41:17;;;;;;;2.90;1.58;;;;;;;12.16;100.00;99799.25;6240357;28;20061;-72
2022/09/26 11:44:36;;;;;;;6.57;2.30;;;;;;;12.06;100.00;99791.19;6246840;28;20379;-71
2022/09/26 11:47:53;;;;;;;6.65;1.75;;;;;;;12.04;100.00;99787.84;6247533;28;20053;-71
2022/09/26 11:51:06;;;;;;;2.22;1.77;;;;;;;11.98;100.00;99782.19;6246884;28;20053;-72
2022/09/26 11:54:23;;;;;;;2.55;1.30;;;;;;;12.02;100.00;99781.00;6247091;28;20093;-71
2022/09/26 11:57:37;;;;;;;4.18;1.65;;;;;;;12.02;100.00;99779.22;6246995;28;20046;-72
2022/09/26 12:00:50;;;;;;;2.45;1.50;;;;;;;12.10;100.00;99766.31;6246897;28;20045;-71
2022/09/26 12:04:29;;;;;;;1.80;1.13;;;;;;;12.11;100.00;99756.63;6246606;28;20045;-71
2022/09/26 12:07:42;;;;;;;6.45;1.38;;;;;;;12.16;100.00;99755.31;6194867;28;20490;-71
2022/09/26 12:10:56;;;;;;;3.97;1.20;;;;;;;12.17;100.00;99738.56;6195966;28;20137;-71
2022/09/26 12:14:04;;;;;;;2.78;1.98;;;;;;;12.17;100.00;99740.34;6246467;28;20489;-72
2022/09/26 12:17:13;;;;;;;3.50;1.58;;;;;;;12.27;100.00;99728.16;6246675;28;20406;-71
2022/09/26 12:20:27;;;;;;;2.25;1.25;;;;;;;12.33;100.00;99734.75;6246486;28;20136;-71
2022/09/26 12:23:35;;;;;;;2.22;1.35;;;;;;;12.32;100.00;99731.28;6246268;28;20515;-71
2022/09/26 12:26:45;;;;;;;0.90;0.77;;;;;;;12.31;100.00;99723.47;6231960;28;20058;-71
2022/09/26 12:29:54;;;;;;;1.55;0.73;;;;;;;12.32;100.00;99717.28;6239378;28;20057;-71
2022/09/26 12:33:26;;;;;;;2.42;1.65;;;;;;;12.30;100.00;99716.53;6242556;28;20054;-71
2022/09/26 12:36:46;;;;;;;1.45;0.85;;;;;;;12.30;100.00;99722.63;6251394;28;20460;-71
2022/09/26 12:40:04;;;;;;;2.55;1.20;;;;;;;12.25;100.00;99723.94;6270802;28;20103;-72
2022/09/26 12:43:24;;;;;;;0.98;0.88;;;;;;;12.18;100.00;99724.44;6270950;28;20044;-71
2022/09/26 12:46:44;;;;;;;1.85;0.90;;;;;;;12.22;100.00;99717.16;6270808;28;20075;-72
2022/09/26 12:50:13;;;;;;;0.98;0.70;;;;;;;12.12;100.00;99721.41;6270853;28;20041;-72
2022/09/26 12:53:36;;;;;;;1.25;1.15;;;;;;;12.08;100.00;99712.06;6271328;28;20140;-72
2022/09/26 12:56:51;;;;;;;2.35;0.73;;;;;;;11.97;100.00;99712.88;6270893;28;20519;-71
2022/09/26 13:00:12;;;;;;;2.60;0.88;;;;;;;11.93;100.00;99700.91;6258683;28;20123;-71
2022/09/26 13:03:35;;;;;;;1.75;1.10;;;;;;;11.86;100.00;99704.97;6234707;28;20053;-72
2022/09/26 13:06:54;;;;;;;3.25;1.50;;;;;;;11.76;100.00;99696.88;6245787;28;20049;-72
2022/09/26 13:10:28;;;;;;;6.65;1.05;;;;;;;11.78;100.00;99689.72;6245791;28;20053;-72
2022/09/26 13:13:47;;;;;;;0.75;0.57;;;;;;;11.72;100.00;99677.03;6238156;28;20049;-72
2022/09/26 13:16:56;;;;;;;;;;;;;;;11.68;100.00;99679.03;6244437;28;20053;-73
2022/09/26 13:20:01;;;;;;;1.20;1.00;;;;;;;11.66;100.00;99678.31;6242422;28;19925;-72
2022/09/26 13:23:08;;;;;;;0.80;0.80;;;;;;;11.66;100.00;99673.03;6240746;28;20045;-72
2022/09/26 13:26:14;;;;;;;2.25;1.02;;;;;;;11.60;100.00;99670.88;6237259;28;20521;-71
2022/09/26 13:29:21;;;;;;;1.08;0.98;;;;;;;11.58;100.00;99669.31;6241639;28;20045;-72
2022/09/26 13:32:29;;;;;;;1.08;0.95;;;;;;;11.53;100.00;99668.81;6244616;28;20517;-72
2022/09/26 13:35:32;;;;;;;1.80;1.05;;;;;;;11.45;100.00;99656.25;6245389;28;20045;-72
2022/09/26 13:38:44;;;;;;;1.58;1.05;;;;;;;11.44;100.00;99649.28;6245822;28;20532;-72
2022/09/26 13:41:52;;;;;;;3.10;1.10;;;;;;;11.43;100.00;99642.34;6249660;28;20053;-71
2022/09/26 13:45:02;;;;;;;2.60;1.00;;;;;;;11.46;100.00;99647.41;6250127;28;20050;-71
2022/09/26 13:48:11;;;;;;;1.52;0.95;;;;;;;11.54;100.00;99649.47;6250072;28;20136;-72
2022/09/26 13:51:20;;;;;;;2.70;1.20;;;;;;;11.47;100.00;99641.19;6249736;28;20057;-72
2022/09/26 13:54:27;;;;;;;1.15;0.80;;;;;;;11.47;100.00;99638.53;6249705;28;20068;-73
2022/09/26 13:57:33;;;;;;;3.42;0.95;;;;;;;11.45;100.00;99629.94;6250137;28;20049;-71
2022/09/26 14:00:40;;;;;;;0.95;0.70;;;;;;;11.39;100.00;99630.38;6249445;28;20073;-71
2022/09/26 14:03:43;;;;;;;1.80;0.75;;;;;;;11.39;100.00;99628.59;6248518;28;20080;-70
2022/09/26 14:07:02;;;;;;;1.05;0.95;;;;;;;11.40;100.00;99621.56;6237494;28;20475;-71
2022/09/26 14:10:16;;;;;;;0.75;0.73;;;;;;;11.39;100.00;99620.69;6245446;28;20437;-71
2022/09/26 14:13:20;;;;;;;4.38;0.95;;;;;;;11.35;100.00;99613.97;6244733;28;20066;-73
2022/09/26 14:16:33;;;;;;;3.38;1.00;;;;;;;11.37;100.00;99619.16;6245476;28;20045;-71
2022/09/26 14:19:39;;;;;;;1.50;0.98;;;;;;;11.40;100.00;99609.25;6249094;28;20069;-71
2022/09/26 14:22:50;;;;;;;1.15;0.90;;;;;;;11.37;100.00;99604.19;6241331;28;20060;-71
2022/09/26 14:25:55;;;;;;;2.83;1.10;;;;;;;11.36;100.00;99606.97;6248944;28;20046;-71
2022/09/26 14:29:23;;;;;;;1.40;0.95;;;;;;;11.41;100.00;99602.19;6249522;28;20045;-71
2022/09/26 14:32:29;;;;;;;1.23;0.77;;;;;;;11.44;100.00;99588.78;6249091;28;20056;-71
2022/09/26 14:35:34;;;;;;;1.00;0.90;;;;;;;11.47;100.00;99587.72;6248525;28;20046;-71
2022/09/26 14:38:40;;;;;;;1.70;0.77;;;;;;;11.42;100.00;99583.66;6249158;28;20057;-71
2022/09/26 14:41:41;;;;;;;1.05;0.85;;;;;;;11.46;100.00;99580.78;6240664;28;20064;-72
2022/09/26 14:44:52;;;;;;;1.38;1.13;;;;;;;11.49;100.00;99565.63;6248811;28;20045;-72
2022/09/26 14:48:06;;;;;;;1.77;1.20;;;;;;;11.49;100.00;99565.63;6248623;28;20397;-71
2022/09/26 14:51:25;;;;;;;0.88;0.57;;;;;;;11.51;100.00;99557.59;6248406;28;20048;-71